Edward G. Pitka Sr Airport Galena US
ICAO: PAGA
IATA:
Category: Medium
Scheduled Services:

Elevation: 153 ft
TransAlt. 18000 ft.

Airport Communications:
AWOS 3:132.525
ANCHORAGE CNTR:127
CTAF:123
FAIRBANKS RDO:122.2
GALENA OPS:39.12
PMSV METRO:134.5

PAGA Zoom In..

If you have problems with the map follow the link
https://www.worldairports.se/pages/airport.php?
ICAO=PAGA

Runways:

(A) RW 06 length 2786 ft width 80 ft
---- / hdg 73

(B) RW 07 length 7249 ft width 150 ft
---- / hdg 72

(C) RW 24 length 2786 ft width 80 ft
---- / hdg 253

(D) RW 25 length 7249 ft width 150 ft
ILS 109.50 / hdg 252

Location; PAGA
Day. 14 / Time. 21.42 Zulu
* Altimeter: 29.44
* Temperature: -18° c. 0.4°f.
* Wind from: 100° Speed 10 kn.
Dewpoint: -21° c.
Visibility: 9 Statute Miles.
Clouds: Broken 2000 ft.
Clouds: Overcast 7000 ft.
Conditions: Light Snow.

PAGA 142142Z AUTO 10010KT 9SM -SN BKN020 OVC070 M18/M21 A2944 RMK AO2 P0000 FZRANO


Wind From 100°
Speed 10 kn.

 
 
jpsmedia.com for Web Design worldairports.se 2018   terms of use